Time;durP1;ratioP1;P1;durP2;ratioP2;P2;SDS_P1;SDS_P2;PMS_P1;PMS_P2;Temp;Humidity;BMP_temperature;BMP_pressure;BME280_temperature;BME280_humidity;BME280_pressure;Samples;Min_cycle;Max_cycle;Signal;HPM_P1;HPM_P2
2024/01/18 00:01:26;;;;;;;;;;;;;;;-2.27;100.00;99281.84;5037992;28;19928;-68
2024/01/18 00:03:52;;;;;;;;;;;;;;;-2.23;100.00;99290.44;5051637;28;19921;-68
2024/01/18 00:06:17;;;;;;;;;;;;;;;-2.25;100.00;99284.44;5068700;28;19921;-68
2024/01/18 00:08:42;;;;;;;;;;;;;;;-2.27;100.00;99283.53;5035338;28;19924;-68
2024/01/18 00:11:07;;;;;;;;;;;;;;;-2.26;100.00;99285.28;5022781;28;20548;-68
2024/01/18 00:13:34;;;;;;;;;;;;;;;-2.25;100.00;99283.59;5031794;28;20398;-68
2024/01/18 00:15:59;;;;;;;;;;;;;;;-2.27;100.00;99284.41;5055611;28;19916;-68
2024/01/18 00:18:24;;;;;;;;;;;;;;;-2.28;100.00;99292.94;5023451;28;19927;-68
2024/01/18 00:20:50;;;;;;;;;;;;;;;-2.30;100.00;99302.34;5055092;28;19920;-68
2024/01/18 00:23:15;;;;;;;;;;;;;;;-2.27;100.00;99312.66;5034189;28;20014;-67
2024/01/18 00:25:40;;;;;;;;;;;;;;;-2.30;100.00;99304.91;5054785;28;19925;-68
2024/01/18 00:28:06;;;;;;;;;;;;;;;-2.27;100.00;99319.47;5032148;28;19968;-68
2024/01/18 00:30:31;;;;;;;;;;;;;;;-2.29;100.00;99316.03;5055158;28;20339;-67
2024/01/18 00:32:57;;;;;;;;;;;;;;;-2.29;100.00;99316.88;5031634;28;20019;-68
2024/01/18 00:35:22;;;;;;;;;;;;;;;-2.29;100.00;99319.44;5035190;28;20019;-67
2024/01/18 00:37:47;;;;;;;;;;;;;;;-2.30;100.00;99320.28;5035618;28;19920;-68
2024/01/18 00:40:16;;;;;;;;;;;;;;;-2.29;100.00;99313.44;5027890;28;19924;-68
2024/01/18 00:42:41;;;;;;;;;;;;;;;-2.27;100.00;99314.31;5054149;28;19927;-68
2024/01/18 00:45:07;;;;;;;;;;;;;;;-2.27;100.00;99325.47;5054775;28;19916;-68
2024/01/18 00:47:33;;;;;;;;;;;;;;;-2.28;100.00;99326.31;5054234;28;19921;-67
2024/01/18 00:49:58;;;;;;;;;;;;;;;-2.28;100.00;99328.88;5027571;28;19920;-67
2024/01/18 00:52:25;;;;;;;;;;;;;;;-2.30;100.00;99329.69;5024789;28;19933;-68
2024/01/18 00:54:50;;;;;;;;;;;;;;;-2.30;100.00;99329.69;5066918;28;19921;-68
2024/01/18 00:57:16;;;;;;;;;;;;;;;-2.30;100.00;99333.13;5031408;28;19927;-68
2024/01/18 00:59:41;;;;;;;;;;;;;;;-2.30;100.00;99338.25;5036726;28;19928;-67
2024/01/18 01:02:09;;;;;;;;;;;;;;;-2.32;100.00;99346.75;5033716;28;19920;-68
2024/01/18 01:04:34;;;;;;;;;;;;;;;-2.33;100.00;99345.91;5054528;28;20049;-68
2024/01/18 01:06:59;;;;;;;;;;;;;;;-2.35;100.00;99351.84;5053535;28;20686;-68
2024/01/18 01:09:25;;;;;;;;;;;;;;;-2.36;100.00;99353.53;5037613;28;20018;-67
2024/01/18 01:11:52;;;;;;;;;;;;;;;-2.37;100.00;99363.78;5053210;28;20277;-68
2024/01/18 01:14:17;;;;;;;;;;;;;;;-2.38;100.00;99356.94;5048506;28;19971;-68
2024/01/18 01:16:42;;;;;;;;;;;;;;;-2.38;100.00;99364.63;5033503;28;20053;-68
2024/01/18 01:19:08;;;;;;;;;;;;;;;-2.39;100.00;99360.34;5018338;28;20335;-68
2024/01/18 01:21:33;;;;;;;;;;;;;;;-2.42;100.00;99365.41;5050782;28;20417;-67
2024/01/18 01:24:10;;;;;;;;;;;;;;;-2.45;100.00;99359.38;5117830;22;19963;-67
2024/01/18 01:32:08;;;;;;;;;;;;;;;-2.56;100.00;99367.72;5400622;22;19923;-67
2024/01/18 01:39:46;;;;;;;;;;;;;;;-2.63;100.00;99361.63;4512678;22;19933;-68
2024/01/18 01:59:20;;;;;;;;;;;;;;;-2.76;100.00;99390.44;2650993;22;20218;-67
2024/01/18 02:20:40;;;;;;;;;;;;;;;-2.93;100.00;99397.81;524605;26;20964;-69
2024/01/18 02:26:08;;;;;;;;;;;;;;;-2.96;100.00;99394.38;5074667;28;19967;-68
2024/01/18 02:28:51;;;;;;;;;;;;;;;-2.96;100.00;99394.38;5040923;28;19912;-68
2024/01/18 02:31:16;;;;;;;;;;;;;;;-2.95;100.00;99397.78;5052655;28;19975;-68
2024/01/18 02:33:42;;;;;;;;;;;;;;;-2.96;100.00;99389.25;5026400;28;19948;-68
2024/01/18 02:36:07;;;;;;;;;;;;;;;-2.96;100.00;99383.22;5048137;28;19921;-70
2024/01/18 02:38:32;;;;;;;;;;;;;;;-2.97;100.00;99379.81;5047007;28;19927;-70
2024/01/18 02:40:58;;;;;;;;;;;;;;;-2.95;100.00;99384.97;5056614;28;20281;-70
2024/01/18 02:43:23;;;;;;;;;;;;;;;-2.93;100.00;99387.56;5047672;28;20295;-70
2024/01/18 02:45:48;;;;;;;;;;;;;;;-2.92;100.00;99392.72;5040192;28;19916;-70
2024/01/18 02:48:14;;;;;;;;;;;;;;;-2.89;100.00;99397.03;5038561;28;20402;-70
2024/01/18 02:50:40;;;;;;;;;;;;;;;-2.87;100.00;99403.09;5028154;28;19921;-70
2024/01/18 02:53:05;;;;;;;;;;;;;;;-2.84;100.00;99409.13;5037406;28;19928;-70
2024/01/18 02:55:31;;;;;;;;;;;;;;;-2.82;100.00;99411.72;5032448;28;19921;-70
2024/01/18 02:57:56;;;;;;;;;;;;;;;-2.81;100.00;99413.44;5041441;28;22329;-70
2024/01/18 03:00:21;;;;;;;;;;;;;;;-2.80;100.00;99413.47;5037369;28;19927;-70
2024/01/18 03:02:47;;;;;;;;;;;;;;;-2.75;100.00;99420.41;5026867;28;20608;-70
2024/01/18 03:05:12;;;;;;;;;;;;;;;-2.76;100.00;99400.72;5033677;28;19921;-70
2024/01/18 03:07:37;;;;;;;;;;;;;;;-2.75;100.00;99410.13;5020709;28;19929;-70
2024/01/18 03:10:03;;;;;;;;;;;;;;;-2.74;100.00;99411.84;5027796;28;19920;-70
2024/01/18 03:12:28;;;;;;;;;;;;;;;-2.74;100.00;99404.16;5029510;28;19921;-70
2024/01/18 03:14:54;;;;;;;;;;;;;;;-2.71;100.00;99409.38;5036037;28;19920;-70
2024/01/18 03:17:19;;;;;;;;;;;;;;;-2.71;100.00;99406.81;5033690;28;20304;-70
2024/01/18 03:19:44;;;;;;;;;;;;;;;-2.70;100.00;99405.94;5061598;28;20327;-70
2024/01/18 03:22:09;;;;;;;;;;;;;;;-2.70;100.00;99411.06;5046176;28;19925;-70
2024/01/18 03:24:35;;;;;;;;;;;;;;;-2.69;100.00;99412.81;5040178;28;20015;-70
2024/01/18 03:27:00;;;;;;;;;;;;;;;-2.70;100.00;99416.19;5035309;28;19975;-70
2024/01/18 03:29:25;;;;;;;;;;;;;;;-2.69;100.00;99417.94;5047294;28;20014;-70
2024/01/18 03:31:51;;;;;;;;;;;;;;;-2.69;100.00;99423.91;5055804;28;20007;-70
2024/01/18 03:34:16;;;;;;;;;;;;;;;-2.70;100.00;99423.91;5051790;28;19931;-70
2024/01/18 03:36:41;;;;;;;;;;;;;;;-2.72;100.00;99423.88;5054044;28;20285;-70
2024/01/18 03:39:07;;;;;;;;;;;;;;;-2.72;100.00;99413.59;5039113;28;19924;-70
2024/01/18 03:41:32;;;;;;;;;;;;;;;-2.74;100.00;99419.53;5051054;28;20007;-70
2024/01/18 03:43:58;;;;;;;;;;;;;;;-2.75;100.00;99428.09;5035241;28;19921;-70
2024/01/18 03:46:23;;;;;;;;;;;;;;;-2.77;100.00;99425.50;5028631;28;19925;-70
2024/01/18 03:48:48;;;;;;;;;;;;;;;-2.79;100.00;99433.16;5023836;28;19925;-70
2024/01/18 03:51:14;;;;;;;;;;;;;;;-2.79;100.00;99435.72;5030131;28;19921;-70
2024/01/18 03:53:41;;;;;;;;;;;;;;;-2.80;100.00;99441.69;5051477;28;20378;-70
2024/01/18 03:56:07;;;;;;;;;;;;;;;-2.80;100.00;99439.13;5054848;28;19920;-70
2024/01/18 03:58:32;;;;;;;;;;;;;;;-2.81;100.00;99436.53;5054095;28;19938;-70
2024/01/18 04:00:58;;;;;;;;;;;;;;;-2.81;100.00;99444.22;5036289;28;19926;-70
2024/01/18 04:03:23;;;;;;;;;;;;;;;-2.82;100.00;99438.19;5025861;28;19924;-70
2024/01/18 04:05:48;;;;;;;;;;;;;;;-2.82;100.00;99445.03;5050403;28;19955;-70
2024/01/18 04:08:13;;;;;;;;;;;;;;;-2.83;100.00;99448.44;5035254;28;20384;-70
2024/01/18 04:10:50;;;;;;;;;;;;;;;-2.86;100.00;99446.69;5036134;28;19935;-70
2024/01/18 04:13:47;;;;;;;;;;;;;;;-2.89;100.00;99451.72;5019150;28;19921;-70
2024/01/18 04:16:13;;;;;;;;;;;;;;;-2.92;100.00;99459.38;5048131;28;20276;-70
2024/01/18 04:18:54;;;;;;;;;;;;;;;-2.98;100.00;99446.44;5053168;28;20322;-70
2024/01/18 04:21:22;;;;;;;;;;;;;;;-3.04;100.00;99456.56;5039185;28;20105;-70
2024/01/18 04:24:08;;;;;;;;;;;;;;;-3.11;100.00;99458.13;5030229;28;20000;-70
2024/01/18 04:26:39;;;;;;;;;;;;;;;-3.21;100.00;99459.63;4949803;29;19974;-69
2024/01/18 04:29:06;;;;;;;;;;;;;;;-3.28;100.00;99457.75;5011690;28;19975;-70
2024/01/18 04:31:33;;;;;;;;;;;;;;;-3.32;100.00;99463.66;5019038;28;20424;-70
2024/01/18 04:34:02;;;;;;;;;;;;;;;-3.37;100.00;99465.25;4991418;28;19927;-69
2024/01/18 04:36:37;;;;;;;;;;;;;;;-3.40;100.00;99468.59;4973582;28;20333;-70
2024/01/18 04:39:06;;;;;;;;;;;;;;;-3.45;100.00;99466.78;4975196;28;20370;-70
2024/01/18 04:41:38;;;;;;;;;;;;;;;-3.51;100.00;99467.50;4981469;28;20332;-70
2024/01/18 04:44:04;;;;;;;;;;;;;;;-3.57;100.00;99480.16;4976085;28;19918;-70
2024/01/18 04:46:45;;;;;;;;;;;;;;;-3.64;100.00;99473.19;4981674;28;20012;-70
2024/01/18 04:49:40;;;;;;;;;;;;;;;-3.71;100.00;99482.41;4974506;28;20359;-70
2024/01/18 04:52:20;;;;;;;;;;;;;;;-3.78;100.00;99483.94;4970856;28;19922;-70
2024/01/18 04:54:52;;;;;;;;;;;;;;;-3.83;100.00;99483.81;4974454;28;19921;-70
2024/01/18 04:57:29;;;;;;;;;;;;;;;-3.87;100.00;99496.53;4962434;28;19936;-70
2024/01/18 05:00:02;;;;;;;;;;;;;;;-3.94;100.00;99510.84;4974546;28;20068;-70
2024/01/18 05:02:31;;;;;;;;;;;;;;;-3.97;100.00;99523.56;4982242;28;19924;-70
2024/01/18 05:04:56;;;;;;;;;;;;;;;-3.96;100.00;99521.91;5039518;28;19999;-70
2024/01/18 05:07:22;;;;;;;;;;;;;;;-3.98;100.00;99523.53;5050769;28;20024;-70
2024/01/18 05:09:47;;;;;;;;;;;;;;;-4.04;100.00;99514.00;5041976;28;20019;-70
2024/01/18 05:12:13;;;;;;;;;;;;;;;-4.08;100.00;99535.22;5072350;28;20344;-70
2024/01/18 05:14:38;;;;;;;;;;;;;;;-4.11;100.00;99527.47;5057073;28;20379;-70
2024/01/18 05:17:10;;;;;;;;;;;;;;;-4.18;100.00;99531.53;5052905;28;19928;-70
2024/01/18 05:19:35;;;;;;;;;;;;;;;-4.25;100.00;99529.66;5051112;28;20569;-70
2024/01/18 05:22:01;;;;;;;;;;;;;;;-4.29;100.00;99535.53;5071938;28;19916;-70
2024/01/18 05:24:26;;;;;;;;;;;;;;;-4.40;100.00;99530.97;5074525;28;19924;-69
2024/01/18 05:26:52;;;;;;;;;;;;;;;-4.47;100.00;99539.28;5046928;28;19924;-70
2024/01/18 05:29:17;;;;;;;;;;;;;;;-4.55;100.00;99533.97;5056396;28;19928;-69
2024/01/18 05:31:47;;;;;;;;;;;;;;;-4.59;100.00;99523.63;5058775;28;19925;-69
2024/01/18 05:34:13;;;;;;;;;;;;;;;-4.59;100.00;99529.59;5068269;28;20333;-69
2024/01/18 05:36:38;;;;;;;;;;;;;;;-4.64;100.00;99541.41;5050161;28;20007;-69
2024/01/18 05:39:04;;;;;;;;;;;;;;;-4.76;100.00;99546.16;5062681;28;19917;-70
2024/01/18 05:41:29;;;;;;;;;;;;;;;-4.93;100.00;99538.88;5056781;28;19916;-69
2024/01/18 05:43:54;;;;;;;;;;;;;;;-4.99;100.00;99553.13;5060598;28;19920;-69
2024/01/18 05:46:20;;;;;;;;;;;;;;;-5.02;100.00;99553.91;5046539;28;19935;-69
2024/01/18 05:48:45;;;;;;;;;;;;;;;-5.06;100.00;99557.19;5046628;28;19932;-69
2024/01/18 05:51:11;;;;;;;;;;;;;;;-5.15;100.00;99557.78;5045497;28;19936;-69
2024/01/18 05:53:36;;;;;;;;;;;;;;;-5.23;100.00;99570.31;5064116;28;20333;-70
2024/01/18 05:56:01;;;;;;;;;;;;;;;-5.33;100.00;99568.31;5058276;28;20265;-69
2024/01/18 05:58:30;;;;;;;;;;;;;;;-5.38;100.00;99572.38;5052330;28;20283;-69
2024/01/18 06:00:55;;;;;;;;;;;;;;;-5.45;100.00;99573.84;5070984;28;19923;-69
2024/01/18 06:03:23;;;;;;;;;;;;;;;-5.53;100.00;99579.53;5053292;28;20351;-69
2024/01/18 06:05:49;;;;;;;;;;;;;;;-5.58;100.00;99582.81;5061357;28;19955;-69
2024/01/18 06:08:15;;;;;;;;;;;;;;;-5.61;100.00;99592.06;5053383;28;19959;-70
2024/01/18 06:10:41;;;;;;;;;;;;;;;-5.63;100.00;99593.69;5057963;28;19928;-70
2024/01/18 06:13:06;;;;;;;;;;;;;;;-5.68;100.00;99596.09;5048140;28;19924;-69
2024/01/18 06:15:32;;;;;;;;;;;;;;;-5.70;100.00;99602.84;5053336;28;19920;-69
2024/01/18 06:18:03;;;;;;;;;;;;;;;-5.81;100.00;99599.03;5043000;28;19931;-70
2024/01/18 06:20:28;;;;;;;;;;;;;;;-5.88;100.00;99607.31;5060112;28;19942;-69
2024/01/18 06:22:54;;;;;;;;;;;;;;;-5.87;100.00;99622.66;5041727;28;19925;-69
2024/01/18 06:25:19;;;;;;;;;;;;;;;-5.88;100.00;99617.50;5036836;28;20390;-69
2024/01/18 06:27:44;;;;;;;;;;;;;;;-5.87;100.00;99616.72;5044522;28;20536;-69
2024/01/18 06:30:10;;;;;;;;;;;;;;;-5.83;100.00;99621.06;5052697;28;19916;-69
2024/01/18 06:32:36;;;;;;;;;;;;;;;-5.79;100.00;99638.22;5050914;28;19920;-69
2024/01/18 06:35:01;;;;;;;;;;;;;;;-5.74;100.00;99639.28;5048549;28;19917;-69
2024/01/18 06:37:26;;;;;;;;;;;;;;;-5.78;100.00;99643.38;5031316;28;19925;-69
2024/01/18 06:39:52;;;;;;;;;;;;;;;-5.83;100.00;99646.59;5039787;28;19923;-70
2024/01/18 06:42:17;;;;;;;;;;;;;;;-5.91;100.00;99649.75;5029779;28;19963;-69
2024/01/18 06:44:46;;;;;;;;;;;;;;;-5.95;100.00;99644.47;5052822;28;19916;-69
2024/01/18 06:47:13;;;;;;;;;;;;;;;-5.99;100.00;99650.31;5029905;28;19960;-70
2024/01/18 06:49:39;;;;;;;;;;;;;;;-6.03;100.00;99649.34;5047755;28;20007;-70
2024/01/18 06:52:04;;;;;;;;;;;;;;;-6.05;100.00;99650.09;5027376;28;20020;-70
2024/01/18 06:54:29;;;;;;;;;;;;;;;-6.05;100.00;99655.22;5024573;28;19956;-70
2024/01/18 06:56:55;;;;;;;;;;;;;;;-6.07;100.00;99655.16;5037237;28;19925;-70
2024/01/18 06:59:20;;;;;;;;;;;;;;;-6.10;100.00;99657.59;5040162;28;20292;-70
2024/01/18 07:01:48;;;;;;;;;;;;;;;-6.16;100.00;99657.34;5031204;28;19925;-70
2024/01/18 07:04:14;;;;;;;;;;;;;;;-6.25;100.00;99663.00;5034839;28;19927;-68
2024/01/18 07:06:39;;;;;;;;;;;;;;;-6.27;100.00;99668.03;5030441;28;20464;-68
2024/01/18 07:09:08;;;;;;;;;;;;;;;-6.30;100.00;99669.63;5037164;28;20031;-68
2024/01/18 07:11:33;;;;;;;;;;;;;;;-6.31;100.00;99675.53;5055357;28;19917;-68
2024/01/18 07:13:58;;;;;;;;;;;;;;;-6.31;100.00;99673.84;5035359;28;19973;-68
2024/01/18 07:16:25;;;;;;;;;;;;;;;-6.30;100.00;99680.69;5043278;28;20019;-68
2024/01/18 07:18:50;;;;;;;;;;;;;;;-6.31;100.00;99691.69;5039252;28;20039;-68
2024/01/18 07:21:15;;;;;;;;;;;;;;;-6.31;100.00;99683.19;5039511;28;20019;-68
2024/01/18 07:23:41;;;;;;;;;;;;;;;-6.35;100.00;99687.31;5038900;28;20348;-68
2024/01/18 07:26:06;;;;;;;;;;;;;;;-6.39;100.00;99699.84;5034847;28;19974;-68
2024/01/18 07:28:31;;;;;;;;;;;;;;;-6.40;100.00;99708.34;5055369;28;19920;-68
2024/01/18 07:30:57;;;;;;;;;;;;;;;-6.40;100.00;99703.25;5032952;28;19970;-68
2024/01/18 07:33:23;;;;;;;;;;;;;;;-6.41;100.00;99701.50;5026491;28;19917;-68
2024/01/18 07:35:49;;;;;;;;;;;;;;;-6.41;100.00;99707.44;5035266;28;20333;-68
2024/01/18 07:38:15;;;;;;;;;;;;;;;-6.44;100.00;99712.44;5050011;28;20023;-68
2024/01/18 07:40:40;;;;;;;;;;;;;;;-6.46;100.00;99721.72;5029295;28;19928;-68
2024/01/18 07:43:07;;;;;;;;;;;;;;;-6.53;100.00;99724.84;5055331;28;19916;-68
2024/01/18 07:45:32;;;;;;;;;;;;;;;-6.58;100.00;99723.78;5052745;28;19923;-68
2024/01/18 07:47:58;;;;;;;;;;;;;;;-6.54;100.00;99730.72;5029278;28;19925;-68
2024/01/18 07:50:23;;;;;;;;;;;;;;;-6.52;100.00;99724.91;5031531;28;19921;-68
2024/01/18 07:52:49;;;;;;;;;;;;;;;-6.48;100.00;99730.97;5054036;28;19968;-68
2024/01/18 07:55:16;;;;;;;;;;;;;;;-6.41;100.00;99745.69;5053183;28;20399;-68
2024/01/18 07:57:41;;;;;;;;;;;;;;;-6.39;100.00;99746.63;5031832;28;19955;-68
2024/01/18 08:00:08;;;;;;;;;;;;;;;-6.38;100.00;99753.44;5048053;28;20269;-68
2024/01/18 08:02:33;;;;;;;;;;;;;;;-6.36;100.00;99756.09;5037953;28;20003;-68
2024/01/18 08:04:58;;;;;;;;;;;;;;;-6.36;100.00;99769.69;5055655;28;20423;-68
2024/01/18 08:07:24;;;;;;;;;;;;;;;-6.30;100.00;99772.47;5034892;28;19975;-68
2024/01/18 08:09:49;;;;;;;;;;;;;;;-6.20;100.00;99777.94;5028850;28;20284;-68
2024/01/18 08:12:14;;;;;;;;;;;;;;;-6.10;100.00;99773.22;5031449;28;19928;-68
2024/01/18 08:14:41;;;;;;;;;;;;;;;-5.99;100.00;99778.75;5031204;28;19924;-68
2024/01/18 08:17:07;;;;;;;;;;;;;;;-5.87;100.00;99783.41;5054276;28;20015;-68
2024/01/18 08:19:33;;;;;;;;;;;;;;;-5.79;100.00;99776.03;5054494;28;19919;-68
2024/01/18 08:21:59;;;;;;;;;;;;;;;-5.71;100.00;99784.84;5034811;28;19925;-68
2024/01/18 08:24:24;;;;;;;;;;;;;;;-5.62;100.00;99774.94;5054149;28;20019;-68
2024/01/18 08:26:49;;;;;;;;;;;;;;;-5.49;100.00;99791.56;5036319;28;19929;-68
2024/01/18 08:29:15;;;;;;;;;;;;;;;-5.37;100.00;99788.63;5035245;28;19996;-68
2024/01/18 08:31:40;;;;;;;;;;;;;;;-5.24;100.00;99793.31;5033583;28;19932;-68
2024/01/18 08:34:07;;;;;;;;;;;;;;;-5.12;100.00;99797.13;5050743;28;20482;-68
2024/01/18 08:36:32;;;;;;;;;;;;;;;-4.99;100.00;99798.41;5037759;28;19916;-68
2024/01/18 08:38:58;;;;;;;;;;;;;;;-4.57;100.00;99808.31;5033341;28;19986;-68
2024/01/18 08:41:23;;;;;;;;;;;;;;;-2.96;100.00;99804.50;5046446;28;19916;-68
2024/01/18 08:43:48;;;;;;;;;;;;;;;-0.53;100.00;99799.38;5038112;28;19928;-68
2024/01/18 08:46:14;;;;;;;;;;;;;;;1.61;100.00;99806.28;5037589;28;19917;-68
2024/01/18 08:48:40;;;;;;;;;;;;;;;3.24;90.40;99803.56;5052585;28;19917;-68
2024/01/18 08:51:12;;;;;;;;;;;;;;;4.71;88.06;99807.69;5052037;28;20352;-68
2024/01/18 08:53:38;;;;;;;;;;;;;;;6.28;88.47;99808.28;5035190;28;20438;-68
2024/01/18 08:56:03;;;;;;;;;;;;;;;7.69;86.76;99812.47;5047572;28;19917;-68
2024/01/18 08:58:29;;;;;;;;;;;;;;;8.67;81.16;99810.69;5034842;28;20288;-68
2024/01/18 09:00:54;;;;;;;;;;;;;;;9.53;79.47;99823.59;5024486;28;19924;-68
2024/01/18 09:03:19;;;;;;;;;;;;;;;10.56;78.66;99819.28;5027884;28;19947;-69
2024/01/18 09:05:45;;;;;;;;;;;;;;;11.44;73.84;99833.25;5032106;28;19920;-69
2024/01/18 09:08:10;;;;;;;;;;;;;;;12.12;71.22;99838.97;5035159;28;20066;-69
2024/01/18 09:10:35;;;;;;;;;;;;;;;12.87;70.90;99850.31;5050281;28;19916;-69
2024/01/18 09:13:01;;;;;;;;;;;;;;;12.00;71.94;99852.50;5052600;28;19916;-73
2024/01/18 09:15:26;;;;;;;;;;;;;;;10.22;72.89;99854.19;5035304;28;19921;-74
2024/01/18 09:17:52;;;;;;;;;;;;;;;8.53;75.44;99859.72;5028106;28;20373;-74
2024/01/18 09:20:17;;;;;;;;;;;;;;;7.14;76.20;99861.94;5024887;28;19921;-74
2024/01/18 09:22:42;;;;;;;;;;;;;;;6.09;77.37;99863.06;5020567;28;19925;-74
2024/01/18 09:25:08;;;;;;;;;;;;;;;5.27;80.41;99863.69;5018020;28;19920;-74
2024/01/18 09:27:33;;;;;;;;;;;;;;;4.67;83.35;99869.16;5015530;28;19931;-73
2024/01/18 09:29:58;;;;;;;;;;;;;;;4.29;83.86;99877.88;5013621;28;19963;-73
2024/01/18 09:32:25;;;;;;;;;;;;;;;3.96;87.31;99885.66;5017203;28;19939;-74
2024/01/18 09:34:50;;;;;;;;;;;;;;;3.61;86.10;99889.09;4998597;28;19931;-74
2024/01/18 09:37:17;;;;;;;;;;;;;;;3.40;84.87;99900.28;5009592;28;19925;-74
2024/01/18 09:39:44;;;;;;;;;;;;;;;3.27;87.45;99899.38;5018590;28;20007;-74
2024/01/18 09:42:14;;;;;;;;;;;;;;;5.01;85.73;99901.03;5043170;28;19979;-74
2024/01/18 09:44:43;;;;;;;;;;;;;;;7.93;81.11;99910.31;5034341;28;19917;-68
2024/01/18 09:47:08;;;;;;;;;;;;;;;10.48;76.83;99910.31;5033591;28;19949;-68
2024/01/18 09:49:34;;;;;;;;;;;;;;;12.66;72.93;99920.31;5008259;28;19963;-69
2024/01/18 09:52:00;;;;;;;;;;;;;;;14.29;68.11;99926.38;4997282;28;20407;-68
2024/01/18 09:54:26;;;;;;;;;;;;;;;15.73;65.27;99927.94;5000998;28;19964;-69
2024/01/18 09:56:52;;;;;;;;;;;;;;;17.00;63.52;99940.19;5012680;28;20341;-69
2024/01/18 09:59:18;;;;;;;;;;;;;;;18.10;59.88;99948.31;5030150;28;19967;-69
2024/01/18 10:01:47;;;;;;;;;;;;;;;18.90;58.70;99942.78;5017077;28;20406;-69
2024/01/18 10:04:12;;;;;;;;;;;;;;;19.64;56.43;99955.00;5034213;28;19913;-69
2024/01/18 10:06:38;;;;;;;;;;;;;;;20.19;50.62;99955.91;5033286;28;20365;-69
2024/01/18 10:09:10;;;;;;;;;;;;;;;20.25;52.57;99967.94;5033664;28;19916;-76
2024/01/18 10:11:36;;;;;;;;;;;;;;;20.76;55.94;99973.41;5017573;28;19928;-76
2024/01/18 10:14:02;;;;;;;;;;;;;;;21.05;51.28;99975.88;5017459;28;19979;-77
2024/01/18 10:16:27;;;;;;;;;;;;;;;21.62;48.91;99977.22;5033392;28;20424;-77
2024/01/18 10:18:53;;;;;;;;;;;;;;;22.19;48.87;99985.56;5033153;28;19967;-77
2024/01/18 10:21:20;;;;;;;;;;;;;;;22.74;42.54;99999.28;5037471;28;19921;-77
2024/01/18 10:23:45;;;;;;;;;;;;;;;23.21;43.70;99999.28;5060887;28;19931;-77
2024/01/18 10:26:11;;;;;;;;;;;;;;;23.58;44.70;100004.38;5061143;28;20000;-77
2024/01/18 10:28:36;;;;;;;;;;;;;;;23.80;45.72;99997.31;5076697;28;19924;-77
2024/01/18 10:31:01;;;;;;;;;;;;;;;24.01;46.98;100005.47;5077462;28;20015;-78
2024/01/18 10:33:28;;;;;;;;;;;;;;;23.61;48.46;100008.66;5076899;28;20371;-77
2024/01/18 10:35:54;;;;;;;;;;;;;;;23.33;47.36;100005.47;5077606;28;19913;-77
2024/01/18 10:38:26;;;;;;;;;;;;;;;23.78;47.64;100008.16;5094781;28;20329;-77
2024/01/18 10:40:53;;;;;;;;;;;;;;;24.26;50.67;100008.78;5057584;28;19916;-77
2024/01/18 10:43:18;;;;;;;;;;;;;;;24.71;42.83;100012.16;5039763;28;19917;-77
2024/01/18 10:45:44;;;;;;;;;;;;;;;25.13;44.83;100016.69;5055966;28;19920;-77
2024/01/18 10:48:10;;;;;;;;;;;;;;;25.46;44.27;100013.88;5076501;28;19969;-78
2024/01/18 10:50:36;;;;;;;;;;;;;;;25.80;42.20;100022.47;5077366;28;19923;-78
2024/01/18 10:53:02;;;;;;;;;;;;;;;26.14;40.40;100011.44;5059971;28;19920;-70
2024/01/18 10:55:28;;;;;;;;;;;;;;;26.40;39.71;100017.09;5049277;28;19916;-70
2024/01/18 10:57:53;;;;;;;;;;;;;;;26.51;49.79;100026.03;5067423;28;19970;-70
2024/01/18 11:00:19;;;;;;;;;;;;;;;26.48;46.13;100029.00;5060569;28;19965;-70
2024/01/18 11:02:45;;;;;;;;;;;;;;;26.56;47.74;100027.28;5060122;28;19923;-70
2024/01/18 11:05:17;;;;;;;;;;;;;;;26.61;43.74;100033.09;5060390;28;19920;-70
2024/01/18 11:07:45;;;;;;;;;;;;;;;26.59;41.07;100037.78;5088621;28;20348;-70
2024/01/18 11:10:11;;;;;;;;;;;;;;;26.71;42.04;100046.56;5068276;28;19920;-69
2024/01/18 11:12:49;;;;;;;;;;;;;;;26.57;37.31;100038.91;5059173;28;19973;-70
2024/01/18 11:15:15;;;;;;;;;;;;;;;26.59;39.46;100045.84;5060947;28;19923;-70
2024/01/18 11:17:45;;;;;;;;;;;;;;;26.75;36.90;100053.34;5055725;28;19924;-70
2024/01/18 11:20:10;;;;;;;;;;;;;;;26.37;37.00;100046.09;5057032;28;19916;-70
2024/01/18 11:22:36;;;;;;;;;;;;;;;25.91;49.43;100046.53;5055648;28;20007;-71
2024/01/18 11:25:09;;;;;;;;;;;;;;;25.59;35.72;100052.06;5049891;28;19924;-70
2024/01/18 11:27:40;;;;;;;;;;;;;;;26.02;37.81;100063.53;5075634;28;20325;-71
2024/01/18 11:30:06;;;;;;;;;;;;;;;26.46;46.27;100069.41;5076406;28;20326;-70
2024/01/18 11:32:32;;;;;;;;;;;;;;;25.51;42.66;100068.81;5091062;28;19927;-78
2024/01/18 11:35:11;;;;;;;;;;;;;;;24.38;41.46;100072.06;5073897;28;19924;-77
2024/01/18 11:37:38;;;;;;;;;;;;;;;23.82;39.02;100076.47;5075962;28;20294;-77
2024/01/18 11:40:05;;;;;;;;;;;;;;;23.57;38.56;100076.72;5060104;28;19916;-70
2024/01/18 11:42:31;;;;;;;;;;;;;;;22.99;39.33;100086.41;5075291;28;19919;-70
2024/01/18 11:45:00;;;;;;;;;;;;;;;22.40;37.25;100071.22;5056486;28;20070;-77
2024/01/18 11:47:32;;;;;;;;;;;;;;;22.30;38.14;100072.84;5070489;28;19931;-78
2024/01/18 11:50:00;;;;;;;;;;;;;;;22.34;52.15;100077.03;5094884;28;20014;-78
2024/01/18 11:52:37;;;;;;;;;;;;;;;22.05;40.32;100087.09;5075605;28;19924;-77
2024/01/18 11:55:04;;;;;;;;;;;;;;;21.61;35.90;100089.31;5061610;28;20391;-76
2024/01/18 11:57:32;;;;;;;;;;;;;;;21.63;50.98;100098.03;5068998;28;19912;-69
2024/01/18 11:59:58;;;;;;;;;;;;;;;21.01;48.47;100090.72;5075856;28;19919;-70
2024/01/18 12:02:24;;;;;;;;;;;;;;;20.89;42.55;100093.25;5055162;28;19999;-75
2024/01/18 12:04:50;;;;;;;;;;;;;;;20.21;43.68;100095.00;5068214;28;20008;-76
2024/01/18 12:07:16;;;;;;;;;;;;;;;19.89;36.83;100102.31;5075068;28;20459;-70
2024/01/18 12:09:42;;;;;;;;;;;;;;;20.03;44.12;100109.44;5059295;28;19919;-77
2024/01/18 12:12:07;;;;;;;;;;;;;;;20.42;39.59;100102.53;5075274;28;20317;-76
2024/01/18 12:14:38;;;;;;;;;;;;;;;20.71;42.95;100113.94;5093432;28;19920;-75
2024/01/18 12:17:04;;;;;;;;;;;;;;;20.98;40.66;100118.41;5075154;28;19945;-70
2024/01/18 12:19:31;;;;;;;;;;;;;;;21.00;37.98;100113.81;5058406;28;19927;-77
2024/01/18 12:21:57;;;;;;;;;;;;;;;20.88;35.33;100120.00;5074925;28;19985;-70
2024/01/18 12:24:22;;;;;;;;;;;;;;;20.06;33.18;100134.03;5055359;28;19924;-69
2024/01/18 12:26:48;;;;;;;;;;;;;;;19.21;36.08;100138.28;5054511;28;20011;-70
2024/01/18 12:29:14;;;;;;;;;;;;;;;18.54;36.79;100135.88;5033019;28;19991;-71
2024/01/18 12:31:39;;;;;;;;;;;;;;;18.28;36.64;100135.53;5054715;28;19979;-70
2024/01/18 12:34:06;;;;;;;;;;;;;;;18.15;34.39;100129.22;5073426;28;19912;-69
2024/01/18 12:36:31;;;;;;;;;;;;;;;16.93;35.07;100135.50;5038454;28;19966;-70
2024/01/18 12:38:56;;;;;;;;;;;;;;;15.12;37.07;100138.31;5033362;28;19917;-75
2024/01/18 12:41:23;;;;;;;;;;;;;;;13.48;39.29;100143.69;5018272;28;19921;-70
2024/01/18 12:43:51;;;;;;;;;;;;;;;12.45;41.26;100138.22;5035093;28;20437;-69
2024/01/18 12:46:18;;;;;;;;;;;;;;;12.46;42.32;100136.47;5039390;28;19998;-69
2024/01/18 12:48:43;;;;;;;;;;;;;;;13.09;40.52;100144.13;5037758;28;19920;-74
2024/01/18 12:51:08;;;;;;;;;;;;;;;13.41;39.90;100142.19;5038137;28;19923;-74
2024/01/18 12:53:34;;;;;;;;;;;;;;;13.81;39.29;100144.25;5054400;28;19924;-74
2024/01/18 12:55:59;;;;;;;;;;;;;;;14.04;39.00;100145.19;5054676;28;19916;-74
2024/01/18 12:58:25;;;;;;;;;;;;;;;13.90;39.56;100148.31;5033623;28;20276;-70
2024/01/18 13:00:51;;;;;;;;;;;;;;;14.45;40.07;100150.66;5018551;28;20452;-70
2024/01/18 13:03:16;;;;;;;;;;;;;;;15.30;38.21;100159.59;5017795;28;20015;-74
2024/01/18 13:05:45;;;;;;;;;;;;;;;15.76;37.27;100160.25;5033700;28;20273;-74
2024/01/18 13:08:10;;;;;;;;;;;;;;;16.22;36.71;100165.25;5054013;28;19924;-75
2024/01/18 13:10:36;;;;;;;;;;;;;;;16.60;36.37;100159.97;5054688;28;19939;-75
2024/01/18 13:13:03;;;;;;;;;;;;;;;16.90;36.61;100170.91;5053708;28;19913;-69
2024/01/18 13:15:28;;;;;;;;;;;;;;;17.10;34.77;100177.00;5037909;28;19927;-75
2024/01/18 13:17:54;;;;;;;;;;;;;;;17.17;35.74;100180.19;5053730;28;20451;-75
2024/01/18 13:20:22;;;;;;;;;;;;;;;17.16;35.66;100194.38;5053361;28;19921;-70
2024/01/18 13:22:48;;;;;;;;;;;;;;;17.71;35.74;100201.31;5050606;28;19913;-72
2024/01/18 13:25:13;;;;;;;;;;;;;;;18.13;34.85;100200.00;5052720;28;20379;-70